全日空NH245航班乘坐記

支 持 本 站: 捐贈伺服器等運維費用,感謝您的支持!

上一次去福岡出差還是10年前的事情了,
因此即使亮點不多,還是把這次NH245航班的飛行日誌總結一下吧。

NH245航班 東京羽田機場-福岡機場

METAR: RJTT 242339Z 18017G28KT 8000 FEW015 BKN/// 22/19 Q1014 RMK 1CU015 A2995
南風,風不太小,能見度不好,陰天都是雲,非常不適合拍照的天氣。
深深後悔為啥訂的是右側窗口。。。

停機位Gate59

機體號JA8324,機型波音767-300,是1992年11月服役的一架相對來說比較老的機體了。

9:00 door close

9:03 push back
9:05 engine start
9:07 taxi start, E7 C7 C9 C10


支 持 本 站: 捐贈伺服器等運維費用,感謝您的支持!

9:13 RWY 16L takeoff

看羽田塔台


H滑走路和G滑走路


日航和全日空的維護工廠


儲油罐,遠側的RWY34L,以及多摩川


RWY05正上方


9:14 回頭看RWY05

Sekid two departure

16L, T6L23, WELDA, PLUTO, KAIJI, HILLS, SEKID
飛機在東京灣上空向左轉個圈,右座看不到什麼,要是左邊的話就能拍到羽田機場全景了。。。


9:17 KAIJI附近,馬上進入雲層,之後就看不到地面了


一路上除了雲,什麼也看不到。即使在巡航高度,在雲中飛行的時間也比較多。


機內非常乾淨,設備保養的非常好,完全沒有老機體的感覺


機翼上這個小小突起,應該是迫降到海上時用來綁救生繩索用的吧。

9:55 機內廣播 "巡航高度34000ft 10300M, RJFF cloud 21度, 10:15 decend start"

10:15 descend

10:25 機內廣播開始進入進場,這一段的航路可以看以啤酒名命名的航點一文

過了FUKUOKA DGC VOR以後的幾張照片貼出來,畢竟風景還不錯的



進場圖如下,RWY16 straight-in

10:40 touch down

跑道頭


安全落地

10:45 Gate7

開始進入7號停機位,可以看到福岡FUKUOKA 1號航站樓的標誌。

也許這是一篇很無趣的流水帳,不好意思啊。

支 持 本 站: 捐贈伺服器等運維費用,感謝您的支持!